sensor_id;sensor_type;location;lat;lon;timestamp;pressure;altitude;pressure_sealevel;temperature;humidity
75815;BME280;64451;45.574;14.224;2023-04-06T00:02:11;97152.56;;;-3.98;79.99
75815;BME280;64451;45.574;14.224;2023-04-06T00:04:16;97141.00;;;-4.04;78.95
75815;BME280;64451;45.574;14.224;2023-04-06T00:08:24;97133.25;;;-4.12;79.79
75815;BME280;64451;45.574;14.224;2023-04-06T00:11:02;97146.00;;;-3.87;81.07
75815;BME280;64451;45.574;14.224;2023-04-06T00:13:03;97143.31;;;-3.94;82.19
75815;BME280;64451;45.574;14.224;2023-04-06T00:15:19;97148.38;;;-4.14;82.62
75815;BME280;64451;45.574;14.224;2023-04-06T00:17:43;97143.75;;;-4.12;82.70
75815;BME280;64451;45.574;14.224;2023-04-06T00:20:16;97141.88;;;-4.18;82.93
75815;BME280;64451;45.574;14.224;2023-04-06T00:22:29;97145.88;;;-4.22;81.90
75815;BME280;64451;45.574;14.224;2023-04-06T00:24:36;97148.81;;;-4.32;81.29
75815;BME280;64451;45.574;14.224;2023-04-06T00:26:36;97140.00;;;-4.03;80.54
75815;BME280;64451;45.574;14.224;2023-04-06T00:37:12;97130.56;;;-4.18;79.91
75815;BME280;64451;45.574;14.224;2023-04-06T00:54:32;97142.28;;;-4.72;83.63
75815;BME280;64451;45.574;14.224;2023-04-06T01:02:23;97130.00;;;-4.71;82.76
75815;BME280;64451;45.574;14.224;2023-04-06T01:09:14;97146.78;;;-5.17;84.39
75815;BME280;64451;45.574;14.224;2023-04-06T01:15:53;97137.75;;;-5.44;85.05
75815;BME280;64451;45.574;14.224;2023-04-06T01:28:54;97145.00;;;-4.65;81.48
75815;BME280;64451;45.574;14.224;2023-04-06T01:31:08;97131.03;;;-4.87;82.57
75815;BME280;64451;45.574;14.224;2023-04-06T01:39:27;97144.78;;;-5.15;85.24
75815;BME280;64451;45.574;14.224;2023-04-06T01:41:30;97145.22;;;-4.82;83.89
75815;BME280;64451;45.574;14.224;2023-04-06T02:01:29;97133.94;;;-5.41;85.64
75815;BME280;64451;45.574;14.224;2023-04-06T02:03:35;97128.78;;;-5.49;86.59
75815;BME280;64451;45.574;14.224;2023-04-06T02:07:53;97131.31;;;-5.41;84.06
75815;BME280;64451;45.574;14.224;2023-04-06T02:09:56;97137.91;;;-5.60;86.18
75815;BME280;64451;45.574;14.224;2023-04-06T02:14:40;97135.63;;;-5.92;86.91
75815;BME280;64451;45.574;14.224;2023-04-06T02:16:56;97130.97;;;-6.05;87.67
75815;BME280;64451;45.574;14.224;2023-04-06T02:21:18;97126.47;;;-5.97;88.50
75815;BME280;64451;45.574;14.224;2023-04-06T02:23:51;97129.56;;;-5.78;87.59
75815;BME280;64451;45.574;14.224;2023-04-06T02:26:16;97135.88;;;-5.87;87.25
75815;BME280;64451;45.574;14.224;2023-04-06T02:28:22;97129.69;;;-5.57;87.59
75815;BME280;64451;45.574;14.224;2023-04-06T02:30:56;97125.09;;;-5.25;86.66
75815;BME280;64451;45.574;14.224;2023-04-06T02:35:15;97120.19;;;-5.58;87.10
75815;BME280;64451;45.574;14.224;2023-04-06T02:37:31;97122.56;;;-5.33;86.14
75815;BME280;64451;45.574;14.224;2023-04-06T02:42:30;97119.28;;;-5.95;87.73
75815;BME280;64451;45.574;14.224;2023-04-06T02:49:48;97116.03;;;-5.67;86.91
75815;BME280;64451;45.574;14.224;2023-04-06T03:09:49;97119.09;;;-5.49;87.00
75815;BME280;64451;45.574;14.224;2023-04-06T03:12:15;97118.53;;;-5.74;87.08
75815;BME280;64451;45.574;14.224;2023-04-06T03:23:41;97129.34;;;-6.06;89.68
75815;BME280;64451;45.574;14.224;2023-04-06T03:31:36;97128.38;;;-5.76;90.16
75815;BME280;64451;45.574;14.224;2023-04-06T03:43:17;97129.47;;;-6.23;91.40
75815;BME280;64451;45.574;14.224;2023-04-06T03:47:34;97127.81;;;-6.01;92.70
75815;BME280;64451;45.574;14.224;2023-04-06T03:49:37;97126.38;;;-6.03;92.38
75815;BME280;64451;45.574;14.224;2023-04-06T03:54:28;97131.16;;;-6.53;92.27
75815;BME280;64451;45.574;14.224;2023-04-06T03:56:40;97133.13;;;-6.55;92.28
75815;BME280;64451;45.574;14.224;2023-04-06T03:58:49;97131.16;;;-6.53;92.36
75815;BME280;64451;45.574;14.224;2023-04-06T04:14:26;97130.34;;;-6.30;92.83
75815;BME280;64451;45.574;14.224;2023-04-06T04:16:39;97125.91;;;-6.30;92.75
75815;BME280;64451;45.574;14.224;2023-04-06T04:23:09;97125.03;;;-5.84;92.95
75815;BME280;64451;45.574;14.224;2023-04-06T04:28:22;97138.66;;;-6.04;90.39
75815;BME280;64451;45.574;14.224;2023-04-06T04:34:57;97139.81;;;-6.29;89.90
75815;BME280;64451;45.574;14.224;2023-04-06T04:39:16;97139.06;;;-6.61;90.37
75815;BME280;64451;45.574;14.224;2023-04-06T04:41:25;97150.63;;;-6.55;90.17
75815;BME280;64451;45.574;14.224;2023-04-06T04:50:31;97160.94;;;-6.54;90.38
75815;BME280;64451;45.574;14.224;2023-04-06T04:52:45;97162.66;;;-6.69;90.88
75815;BME280;64451;45.574;14.224;2023-04-06T04:54:48;97157.25;;;-6.36;91.18
75815;BME280;64451;45.574;14.224;2023-04-06T04:56:49;97166.94;;;-6.22;90.47
75815;BME280;64451;45.574;14.224;2023-04-06T05:05:32;97161.03;;;-5.78;89.84
75815;BME280;64451;45.574;14.224;2023-04-06T05:07:41;97155.47;;;-5.83;90.08
75815;BME280;64451;45.574;14.224;2023-04-06T05:09:43;97149.38;;;-6.13;89.80
75815;BME280;64451;45.574;14.224;2023-04-06T05:11:49;97158.97;;;-6.52;89.64
75815;BME280;64451;45.574;14.224;2023-04-06T05:16:42;97149.31;;;-5.38;88.07
75815;BME280;64451;45.574;14.224;2023-04-06T05:19:01;97167.06;;;-5.25;87.26
75815;BME280;64451;45.574;14.224;2023-04-06T05:21:11;97169.13;;;-5.06;86.34
75815;BME280;64451;45.574;14.224;2023-04-06T05:23:19;97166.31;;;-4.90;87.02
75815;BME280;64451;45.574;14.224;2023-04-06T05:25:20;97161.94;;;-3.89;83.15
75815;BME280;64451;45.574;14.224;2023-04-06T05:27:39;97153.03;;;-3.67;80.19
75815;BME280;64451;45.574;14.224;2023-04-06T05:30:01;97168.13;;;-3.54;80.07
75815;BME280;64451;45.574;14.224;2023-04-06T05:32:04;97154.72;;;-3.31;79.26
75815;BME280;64451;45.574;14.224;2023-04-06T05:34:12;97157.34;;;-2.96;76.84
75815;BME280;64451;45.574;14.224;2023-04-06T05:36:24;97150.16;;;-2.81;76.51
75815;BME280;64451;45.574;14.224;2023-04-06T05:38:24;97160.03;;;-2.83;76.14
75815;BME280;64451;45.574;14.224;2023-04-06T05:40:38;97155.75;;;-3.25;79.55
75815;BME280;64451;45.574;14.224;2023-04-06T05:42:52;97164.84;;;-2.52;76.71
75815;BME280;64451;45.574;14.224;2023-04-06T05:45:07;97165.28;;;-2.42;75.57
75815;BME280;64451;45.574;14.224;2023-04-06T05:47:16;97148.66;;;-2.90;78.40
75815;BME280;64451;45.574;14.224;2023-04-06T05:49:49;97158.66;;;-2.79;77.73
75815;BME280;64451;45.574;14.224;2023-04-06T05:52:42;97160.81;;;-2.96;77.01
75815;BME280;64451;45.574;14.224;2023-04-06T05:54:57;97165.53;;;-2.30;76.71
75815;BME280;64451;45.574;14.224;2023-04-06T05:56:57;97161.44;;;-2.39;76.21
75815;BME280;64451;45.574;14.224;2023-04-06T05:58:57;97160.47;;;-2.25;76.00
75815;BME280;64451;45.574;14.224;2023-04-06T06:01:10;97165.63;;;-1.64;74.96
75815;BME280;64451;45.574;14.224;2023-04-06T06:03:10;97169.19;;;-2.18;75.68
75815;BME280;64451;45.574;14.224;2023-04-06T06:05:17;97160.81;;;-2.41;79.44
75815;BME280;64451;45.574;14.224;2023-04-06T06:07:20;97164.22;;;-1.47;78.47
75815;BME280;64451;45.574;14.224;2023-04-06T06:09:20;97168.81;;;-0.38;73.07
75815;BME280;64451;45.574;14.224;2023-04-06T06:11:21;97155.59;;;-0.96;71.49
75815;BME280;64451;45.574;14.224;2023-04-06T06:13:22;97161.13;;;0.24;70.12
75815;BME280;64451;45.574;14.224;2023-04-06T06:15:34;97153.28;;;-0.66;69.63
75815;BME280;64451;45.574;14.224;2023-04-06T06:17:38;97161.59;;;-0.55;68.33
75815;BME280;64451;45.574;14.224;2023-04-06T06:19:41;97155.28;;;-0.61;69.67
75815;BME280;64451;45.574;14.224;2023-04-06T06:21:42;97155.25;;;-0.48;70.10
75815;BME280;64451;45.574;14.224;2023-04-06T06:23:54;97151.25;;;-0.70;69.31
75815;BME280;64451;45.574;14.224;2023-04-06T06:26:04;97151.63;;;-0.60;69.82
75815;BME280;64451;45.574;14.224;2023-04-06T06:28:04;97157.28;;;-0.12;67.40
75815;BME280;64451;45.574;14.224;2023-04-06T06:30:08;97143.34;;;-0.77;69.60
75815;BME280;64451;45.574;14.224;2023-04-06T06:32:14;97143.00;;;-0.42;68.46
75815;BME280;64451;45.574;14.224;2023-04-06T06:34:14;97148.91;;;-0.40;69.54
75815;BME280;64451;45.574;14.224;2023-04-06T06:36:21;97138.19;;;0.18;66.88
75815;BME280;64451;45.574;14.224;2023-04-06T06:38:27;97134.47;;;0.25;64.16
75815;BME280;64451;45.574;14.224;2023-04-06T06:40:30;97132.78;;;0.31;66.79
75815;BME280;64451;45.574;14.224;2023-04-06T06:42:31;97139.75;;;0.75;62.97
75815;BME280;64451;45.574;14.224;2023-04-06T06:44:31;97142.44;;;1.12;61.64
75815;BME280;64451;45.574;14.224;2023-04-06T06:46:37;97132.56;;;1.01;59.86
75815;BME280;64451;45.574;14.224;2023-04-06T06:48:46;97138.31;;;1.16;62.62
75815;BME280;64451;45.574;14.224;2023-04-06T06:50:47;97132.41;;;1.14;62.56
75815;BME280;64451;45.574;14.224;2023-04-06T06:52:57;97130.41;;;1.46;62.49
75815;BME280;64451;45.574;14.224;2023-04-06T06:55:07;97126.16;;;1.45;61.33
75815;BME280;64451;45.574;14.224;2023-04-06T06:57:08;97133.28;;;2.35;57.98
75815;BME280;64451;45.574;14.224;2023-04-06T06:59:09;97121.03;;;2.34;56.85
75815;BME280;64451;45.574;14.224;2023-04-06T07:01:15;97130.53;;;3.12;53.89
75815;BME280;64451;45.574;14.224;2023-04-06T07:03:18;97130.31;;;2.01;58.10
75815;BME280;64451;45.574;14.224;2023-04-06T07:05:34;97128.09;;;2.51;56.60
75815;BME280;64451;45.574;14.224;2023-04-06T07:12:47;97123.38;;;3.52;51.99
75815;BME280;64451;45.574;14.224;2023-04-06T07:14:54;97126.59;;;2.79;54.96
75815;BME280;64451;45.574;14.224;2023-04-06T07:17:06;97113.09;;;2.92;55.69
75815;BME280;64451;45.574;14.224;2023-04-06T07:19:25;97118.81;;;3.36;51.96
75815;BME280;64451;45.574;14.224;2023-04-06T07:21:31;97123.53;;;4.65;50.00
75815;BME280;64451;45.574;14.224;2023-04-06T07:23:52;97122.78;;;4.36;53.06
75815;BME280;64451;45.574;14.224;2023-04-06T07:25:53;97118.16;;;4.14;50.47
75815;BME280;64451;45.574;14.224;2023-04-06T07:32:33;97116.34;;;5.64;46.37
75815;BME280;64451;45.574;14.224;2023-04-06T07:34:40;97107.75;;;5.84;49.64
75815;BME280;64451;45.574;14.224;2023-04-06T07:36:59;97115.66;;;5.30;52.39
75815;BME280;64451;45.574;14.224;2023-04-06T07:39:03;97111.38;;;6.54;45.25
75815;BME280;64451;45.574;14.224;2023-04-06T07:41:06;97115.44;;;7.46;46.72
75815;BME280;64451;45.574;14.224;2023-04-06T07:45:19;97102.53;;;8.31;43.67
75815;BME280;64451;45.574;14.224;2023-04-06T07:47:39;97101.25;;;9.70;39.85
75815;BME280;64451;45.574;14.224;2023-04-06T07:49:46;97095.78;;;9.90;37.13
75815;BME280;64451;45.574;14.224;2023-04-06T07:51:53;97099.09;;;9.67;37.26
75815;BME280;64451;45.574;14.224;2023-04-06T07:54:08;97096.91;;;9.79;36.12
75815;BME280;64451;45.574;14.224;2023-04-06T07:56:12;97093.63;;;9.17;41.07
75815;BME280;64451;45.574;14.224;2023-04-06T08:00:19;97091.53;;;10.96;35.61
75815;BME280;64451;45.574;14.224;2023-04-06T08:02:31;97091.56;;;10.91;34.12
75815;BME280;64451;45.574;14.224;2023-04-06T08:04:32;97091.41;;;9.99;31.56
75815;BME280;64451;45.574;14.224;2023-04-06T08:06:48;97082.69;;;9.73;33.11
75815;BME280;64451;45.574;14.224;2023-04-06T08:08:54;97080.84;;;8.48;33.14
75815;BME280;64451;45.574;14.224;2023-04-06T08:13:10;97085.38;;;8.83;33.48
75815;BME280;64451;45.574;14.224;2023-04-06T08:15:14;97079.50;;;8.46;33.69
75815;BME280;64451;45.574;14.224;2023-04-06T08:21:35;97076.81;;;8.56;33.65
75815;BME280;64451;45.574;14.224;2023-04-06T08:23:42;97083.75;;;9.03;36.96
75815;BME280;64451;45.574;14.224;2023-04-06T08:25:51;97084.41;;;9.49;32.95
75815;BME280;64451;45.574;14.224;2023-04-06T08:30:13;97076.78;;;8.96;34.54
75815;BME280;64451;45.574;14.224;2023-04-06T08:36:36;97079.44;;;9.01;32.35
75815;BME280;64451;45.574;14.224;2023-04-06T08:38:40;97073.22;;;9.16;33.97
75815;BME280;64451;45.574;14.224;2023-04-06T08:40:56;97077.00;;;9.20;33.69
75815;BME280;64451;45.574;14.224;2023-04-06T08:42:59;97076.16;;;9.25;33.30
75815;BME280;64451;45.574;14.224;2023-04-06T08:45:09;97074.50;;;9.39;34.04
75815;BME280;64451;45.574;14.224;2023-04-06T08:47:16;97067.38;;;8.99;34.83
75815;BME280;64451;45.574;14.224;2023-04-06T08:51:19;97077.59;;;8.87;34.13
75815;BME280;64451;45.574;14.224;2023-04-06T08:53:19;97077.06;;;8.90;31.91
75815;BME280;64451;45.574;14.224;2023-04-06T08:55:22;97084.78;;;9.17;33.63
75815;BME280;64451;45.574;14.224;2023-04-06T08:59:39;97059.38;;;8.73;35.23
75815;BME280;64451;45.574;14.224;2023-04-06T09:01:40;97062.41;;;9.47;32.44
75815;BME280;64451;45.574;14.224;2023-04-06T09:03:42;97060.56;;;9.37;30.71
75815;BME280;64451;45.574;14.224;2023-04-06T09:05:46;97054.97;;;9.18;32.24
75815;BME280;64451;45.574;14.224;2023-04-06T09:08:02;97062.28;;;9.72;33.15
75815;BME280;64451;45.574;14.224;2023-04-06T09:10:12;97053.56;;;10.35;30.89
75815;BME280;64451;45.574;14.224;2023-04-06T09:14:15;97038.50;;;10.68;30.29
75815;BME280;64451;45.574;14.224;2023-04-06T09:16:17;97038.25;;;10.64;31.27
75815;BME280;64451;45.574;14.224;2023-04-06T09:18:36;97043.28;;;10.42;29.43
75815;BME280;64451;45.574;14.224;2023-04-06T09:20:39;97039.31;;;10.34;30.28
75815;BME280;64451;45.574;14.224;2023-04-06T09:22:54;97045.63;;;10.54;31.93
75815;BME280;64451;45.574;14.224;2023-04-06T09:25:01;97040.06;;;10.98;34.73
75815;BME280;64451;45.574;14.224;2023-04-06T09:27:07;97032.66;;;11.33;30.38
75815;BME280;64451;45.574;14.224;2023-04-06T09:29:24;97033.63;;;10.70;30.48
75815;BME280;64451;45.574;14.224;2023-04-06T09:33:45;97034.88;;;10.49;30.35
75815;BME280;64451;45.574;14.224;2023-04-06T09:35:55;97033.81;;;10.79;29.98
75815;BME280;64451;45.574;14.224;2023-04-06T09:38:11;97035.75;;;10.73;32.12
75815;BME280;64451;45.574;14.224;2023-04-06T09:40:20;97034.00;;;10.87;27.90
75815;BME280;64451;45.574;14.224;2023-04-06T09:42:25;97038.91;;;10.80;30.30
75815;BME280;64451;45.574;14.224;2023-04-06T09:44:25;97038.06;;;11.09;30.37
75815;BME280;64451;45.574;14.224;2023-04-06T09:46:46;97034.09;;;10.77;29.89
75815;BME280;64451;45.574;14.224;2023-04-06T09:51:30;97026.31;;;11.23;29.85
75815;BME280;64451;45.574;14.224;2023-04-06T09:53:31;97027.00;;;10.86;29.58
75815;BME280;64451;45.574;14.224;2023-04-06T09:56:11;97041.44;;;10.95;31.57
75815;BME280;64451;45.574;14.224;2023-04-06T09:58:25;97027.81;;;11.11;30.00
75815;BME280;64451;45.574;14.224;2023-04-06T10:08:08;97025.75;;;11.50;31.95
75815;BME280;64451;45.574;14.224;2023-04-06T10:10:24;97028.91;;;11.10;29.86
75815;BME280;64451;45.574;14.224;2023-04-06T10:12:24;97022.72;;;11.09;34.35
75815;BME280;64451;45.574;14.224;2023-04-06T10:14:49;97024.00;;;11.60;27.90
75815;BME280;64451;45.574;14.224;2023-04-06T10:17:03;97021.56;;;11.82;29.61
75815;BME280;64451;45.574;14.224;2023-04-06T10:19:37;97015.16;;;11.97;27.71
75815;BME280;64451;45.574;14.224;2023-04-06T10:22:03;97023.84;;;11.70;27.17
75815;BME280;64451;45.574;14.224;2023-04-06T10:24:20;97011.66;;;11.96;28.21
75815;BME280;64451;45.574;14.224;2023-04-06T10:26:26;97012.69;;;11.58;27.04
75815;BME280;64451;45.574;14.224;2023-04-06T10:28:41;97017.72;;;11.45;31.56
75815;BME280;64451;45.574;14.224;2023-04-06T10:33:14;97008.16;;;11.96;28.63
75815;BME280;64451;45.574;14.224;2023-04-06T10:35:45;96998.47;;;11.95;30.51
75815;BME280;64451;45.574;14.224;2023-04-06T10:40:31;96983.66;;;12.57;27.98
75815;BME280;64451;45.574;14.224;2023-04-06T10:42:37;96992.09;;;11.67;27.37
75815;BME280;64451;45.574;14.224;2023-04-06T10:44:44;96983.34;;;11.75;31.00
75815;BME280;64451;45.574;14.224;2023-04-06T10:49:12;96985.63;;;12.05;29.16
75815;BME280;64451;45.574;14.224;2023-04-06T10:51:15;96986.22;;;12.02;27.21
75815;BME280;64451;45.574;14.224;2023-04-06T10:53:24;96994.53;;;11.87;28.71
75815;BME280;64451;45.574;14.224;2023-04-06T10:55:46;96982.44;;;11.42;28.93
75815;BME280;64451;45.574;14.224;2023-04-06T10:57:47;96979.94;;;11.50;28.24
75815;BME280;64451;45.574;14.224;2023-04-06T10:59:48;96985.09;;;11.66;26.90
75815;BME280;64451;45.574;14.224;2023-04-06T11:01:48;96993.06;;;11.76;28.45
75815;BME280;64451;45.574;14.224;2023-04-06T11:09:01;96975.53;;;11.36;26.59
75815;BME280;64451;45.574;14.224;2023-04-06T11:15:11;96972.28;;;11.95;28.13
75815;BME280;64451;45.574;14.224;2023-04-06T11:17:42;96971.25;;;11.91;27.41
75815;BME280;64451;45.574;14.224;2023-04-06T11:19:55;96964.41;;;12.18;27.45
75815;BME280;64451;45.574;14.224;2023-04-06T11:21:55;96972.97;;;12.20;28.51
75815;BME280;64451;45.574;14.224;2023-04-06T11:24:16;96959.81;;;11.99;28.00
75815;BME280;64451;45.574;14.224;2023-04-06T11:26:39;96969.00;;;12.17;27.82
75815;BME280;64451;45.574;14.224;2023-04-06T11:28:46;96960.47;;;12.10;28.61
75815;BME280;64451;45.574;14.224;2023-04-06T11:30:50;96956.66;;;12.57;26.83
75815;BME280;64451;45.574;14.224;2023-04-06T11:32:52;96953.53;;;12.36;25.12
75815;BME280;64451;45.574;14.224;2023-04-06T11:34:52;96950.03;;;12.36;24.20
75815;BME280;64451;45.574;14.224;2023-04-06T11:37:14;96949.25;;;12.49;25.98
75815;BME280;64451;45.574;14.224;2023-04-06T11:47:59;96935.09;;;12.85;28.35
75815;BME280;64451;45.574;14.224;2023-04-06T11:52:33;96930.69;;;12.89;26.60
75815;BME280;64451;45.574;14.224;2023-04-06T11:54:39;96928.22;;;12.92;24.47
75815;BME280;64451;45.574;14.224;2023-04-06T11:56:41;96923.78;;;12.97;26.39
75815;BME280;64451;45.574;14.224;2023-04-06T12:01:19;96915.69;;;12.97;25.77
75815;BME280;64451;45.574;14.224;2023-04-06T12:03:25;96923.94;;;12.31;27.32
75815;BME280;64451;45.574;14.224;2023-04-06T12:05:41;96922.69;;;12.56;28.55
75815;BME280;64451;45.574;14.224;2023-04-06T12:07:44;96912.41;;;12.12;31.14
75815;BME280;64451;45.574;14.224;2023-04-06T12:14:18;96905.72;;;12.83;27.77
75815;BME280;64451;45.574;14.224;2023-04-06T12:16:31;96903.91;;;12.79;29.28
75815;BME280;64451;45.574;14.224;2023-04-06T12:18:34;96897.75;;;13.64;26.46
75815;BME280;64451;45.574;14.224;2023-04-06T12:20:34;96891.06;;;14.06;30.59
75815;BME280;64451;45.574;14.224;2023-04-06T12:22:46;96887.09;;;12.82;27.70
75815;BME280;64451;45.574;14.224;2023-04-06T12:24:52;96881.94;;;14.25;24.46
75815;BME280;64451;45.574;14.224;2023-04-06T12:26:59;96876.75;;;14.37;26.96
75815;BME280;64451;45.574;14.224;2023-04-06T12:28:59;96877.66;;;14.01;26.72
75815;BME280;64451;45.574;14.224;2023-04-06T12:31:36;96868.09;;;13.51;25.12
75815;BME280;64451;45.574;14.224;2023-04-06T12:33:55;96881.41;;;13.47;25.39
75815;BME280;64451;45.574;14.224;2023-04-06T12:36:01;96875.25;;;13.05;26.77
75815;BME280;64451;45.574;14.224;2023-04-06T12:38:07;96869.75;;;13.10;25.29
75815;BME280;64451;45.574;14.224;2023-04-06T12:40:14;96871.78;;;12.63;25.93
75815;BME280;64451;45.574;14.224;2023-04-06T12:42:15;96864.69;;;12.81;24.37
75815;BME280;64451;45.574;14.224;2023-04-06T12:44:18;96871.50;;;12.92;27.41
75815;BME280;64451;45.574;14.224;2023-04-06T12:48:37;96869.75;;;12.14;26.16
75815;BME280;64451;45.574;14.224;2023-04-06T12:50:38;96863.09;;;12.39;25.93
75815;BME280;64451;45.574;14.224;2023-04-06T12:54:53;96865.72;;;12.58;28.80
75815;BME280;64451;45.574;14.224;2023-04-06T12:57:08;96856.19;;;12.60;23.71
75815;BME280;64451;45.574;14.224;2023-04-06T12:59:17;96847.00;;;12.48;25.58
75815;BME280;64451;45.574;14.224;2023-04-06T13:03:49;96865.50;;;12.54;25.27
75815;BME280;64451;45.574;14.224;2023-04-06T13:05:56;96852.50;;;12.84;24.60
75815;BME280;64451;45.574;14.224;2023-04-06T13:08:02;96845.50;;;12.83;23.76
75815;BME280;64451;45.574;14.224;2023-04-06T13:12:12;96828.59;;;12.63;24.34
75815;BME280;64451;45.574;14.224;2023-04-06T13:14:25;96848.09;;;12.47;24.37
75815;BME280;64451;45.574;14.224;2023-04-06T13:16:34;96848.88;;;12.20;26.84
75815;BME280;64451;45.574;14.224;2023-04-06T13:20:42;96836.91;;;12.67;24.14
75815;BME280;64451;45.574;14.224;2023-04-06T13:22:46;96827.50;;;12.64;25.18
75815;BME280;64451;45.574;14.224;2023-04-06T13:25:04;96828.44;;;12.96;25.27
75815;BME280;64451;45.574;14.224;2023-04-06T13:29:42;96829.09;;;13.15;25.74
75815;BME280;64451;45.574;14.224;2023-04-06T13:31:54;96834.16;;;13.08;25.37
75815;BME280;64451;45.574;14.224;2023-04-06T13:34:13;96831.06;;;12.74;24.80
75815;BME280;64451;45.574;14.224;2023-04-06T13:36:22;96812.00;;;13.20;25.09
75815;BME280;64451;45.574;14.224;2023-04-06T13:40:31;96807.25;;;13.62;25.68
75815;BME280;64451;45.574;14.224;2023-04-06T13:42:31;96828.31;;;13.15;24.17
75815;BME280;64451;45.574;14.224;2023-04-06T13:47:13;96819.78;;;12.85;26.64
75815;BME280;64451;45.574;14.224;2023-04-06T13:49:21;96823.44;;;13.03;24.77
75815;BME280;64451;45.574;14.224;2023-04-06T13:51:43;96815.88;;;12.78;24.14
75815;BME280;64451;45.574;14.224;2023-04-06T13:53:43;96812.09;;;12.10;24.84
75815;BME280;64451;45.574;14.224;2023-04-06T13:57:49;96806.59;;;12.56;25.19
75815;BME280;64451;45.574;14.224;2023-04-06T13:59:49;96801.06;;;12.89;24.12
75815;BME280;64451;45.574;14.224;2023-04-06T14:01:55;96794.63;;;12.99;23.73
75815;BME280;64451;45.574;14.224;2023-04-06T14:06:23;96799.13;;;13.39;28.26
75815;BME280;64451;45.574;14.224;2023-04-06T14:08:37;96801.41;;;13.68;24.25
75815;BME280;64451;45.574;14.224;2023-04-06T14:10:49;96778.66;;;13.69;28.76
75815;BME280;64451;45.574;14.224;2023-04-06T14:13:08;96782.19;;;14.01;23.28
75815;BME280;64451;45.574;14.224;2023-04-06T14:15:27;96784.19;;;13.64;23.20
75815;BME280;64451;45.574;14.224;2023-04-06T14:17:40;96777.38;;;13.22;24.70
75815;BME280;64451;45.574;14.224;2023-04-06T14:19:41;96788.19;;;13.22;26.13
75815;BME280;64451;45.574;14.224;2023-04-06T14:22:16;96785.06;;;13.29;25.96
75815;BME280;64451;45.574;14.224;2023-04-06T14:24:20;96780.63;;;13.55;25.38
75815;BME280;64451;45.574;14.224;2023-04-06T14:26:39;96784.00;;;13.38;28.04
75815;BME280;64451;45.574;14.224;2023-04-06T14:31:31;96780.50;;;13.83;26.73
75815;BME280;64451;45.574;14.224;2023-04-06T14:34:01;96780.56;;;13.69;24.31
75815;BME280;64451;45.574;14.224;2023-04-06T14:36:11;96778.28;;;13.40;24.69
75815;BME280;64451;45.574;14.224;2023-04-06T14:38:23;96784.50;;;13.40;25.59
75815;BME280;64451;45.574;14.224;2023-04-06T14:40:24;96781.94;;;13.89;25.34
75815;BME280;64451;45.574;14.224;2023-04-06T14:42:40;96770.53;;;13.69;24.62
75815;BME280;64451;45.574;14.224;2023-04-06T14:44:43;96768.16;;;13.68;25.71
75815;BME280;64451;45.574;14.224;2023-04-06T14:46:48;96768.06;;;13.51;24.39
75815;BME280;64451;45.574;14.224;2023-04-06T14:48:57;96766.16;;;13.51;25.79
75815;BME280;64451;45.574;14.224;2023-04-06T14:50:57;96773.47;;;13.51;24.92
75815;BME280;64451;45.574;14.224;2023-04-06T14:52:59;96767.47;;;13.40;27.05
75815;BME280;64451;45.574;14.224;2023-04-06T14:55:00;96765.56;;;13.63;23.33
75815;BME280;64451;45.574;14.224;2023-04-06T14:57:07;96764.56;;;13.81;23.83
75815;BME280;64451;45.574;14.224;2023-04-06T14:59:07;96768.78;;;13.96;26.71
75815;BME280;64451;45.574;14.224;2023-04-06T15:01:39;96771.78;;;14.25;24.82
75815;BME280;64451;45.574;14.224;2023-04-06T15:03:45;96772.09;;;13.93;25.10
75815;BME280;64451;45.574;14.224;2023-04-06T15:05:57;96771.63;;;13.91;26.22
75815;BME280;64451;45.574;14.224;2023-04-06T15:08:22;96768.94;;;13.24;29.01
75815;BME280;64451;45.574;14.224;2023-04-06T15:14:31;96762.50;;;13.56;30.48
75815;BME280;64451;45.574;14.224;2023-04-06T15:16:38;96760.38;;;13.44;31.71
75815;BME280;64451;45.574;14.224;2023-04-06T15:18:38;96763.91;;;13.08;30.84
75815;BME280;64451;45.574;14.224;2023-04-06T15:20:38;96778.09;;;12.78;34.72
75815;BME280;64451;45.574;14.224;2023-04-06T15:22:40;96776.81;;;12.61;33.47
75815;BME280;64451;45.574;14.224;2023-04-06T15:27:44;96781.09;;;12.62;33.78
75815;BME280;64451;45.574;14.224;2023-04-06T15:29:59;96790.13;;;12.44;33.77
75815;BME280;64451;45.574;14.224;2023-04-06T15:34:58;96801.19;;;12.15;33.90
75815;BME280;64451;45.574;14.224;2023-04-06T15:40:00;96797.22;;;12.26;35.31
75815;BME280;64451;45.574;14.224;2023-04-06T15:46:49;96803.50;;;12.22;37.11
75815;BME280;64451;45.574;14.224;2023-04-06T15:48:50;96804.53;;;12.26;35.28
75815;BME280;64451;45.574;14.224;2023-04-06T15:50:57;96807.31;;;12.21;35.91
75815;BME280;64451;45.574;14.224;2023-04-06T15:55:16;96804.09;;;11.72;35.80
75815;BME280;64451;45.574;14.224;2023-04-06T15:57:25;96808.69;;;11.39;37.38
75815;BME280;64451;45.574;14.224;2023-04-06T15:59:26;96811.63;;;11.24;37.28
75815;BME280;64451;45.574;14.224;2023-04-06T16:01:26;96820.22;;;10.88;36.93
75815;BME280;64451;45.574;14.224;2023-04-06T16:05:48;96825.88;;;10.68;37.36
75815;BME280;64451;45.574;14.224;2023-04-06T16:07:57;96826.78;;;10.58;38.28
75815;BME280;64451;45.574;14.224;2023-04-06T16:10:09;96828.63;;;10.63;38.17
75815;BME280;64451;45.574;14.224;2023-04-06T16:12:19;96830.09;;;10.74;39.06
75815;BME280;64451;45.574;14.224;2023-04-06T16:14:53;96841.25;;;10.86;38.42
75815;BME280;64451;45.574;14.224;2023-04-06T16:16:56;96845.09;;;10.80;38.98
75815;BME280;64451;45.574;14.224;2023-04-06T16:19:15;96837.34;;;10.55;38.08
75815;BME280;64451;45.574;14.224;2023-04-06T16:21:30;96838.28;;;10.64;39.54
75815;BME280;64451;45.574;14.224;2023-04-06T16:23:46;96840.06;;;10.74;38.80
75815;BME280;64451;45.574;14.224;2023-04-06T16:25:56;96837.44;;;10.68;39.93
75815;BME280;64451;45.574;14.224;2023-04-06T16:28:03;96845.06;;;10.37;38.80
75815;BME280;64451;45.574;14.224;2023-04-06T16:30:15;96833.44;;;10.42;40.77